KANQ/ANQ METAR and TAF weather

Enter ICAO airport designator
Station Type Date Time Source
KANQ METAR 2022/01/26 20:15 UTC NOAA

KANQ 262015Z AUTO 23008KT 10SM CLR M11/M17 A3037 RMK AO2


Station Type Date Time Source
KANQ Decoded METAR 2022/01/26 20:15 UTC NOAA

Station name not available
Jan 26, 2022 - 03:15 PM EST / 2022.01.26 2015 UTC
Wind: from the SW (230 degrees) at 9 MPH (8 KT):0
Visibility: 10 mile(s):0
Sky conditions: clear
Temperature: 12 F (-11 C)
Windchill: 0 F (-18 C):1
Dew Point: 1 F (-17 C)
Relative Humidity: 61%
Pressure (altimeter): 30.37 in. Hg (1028 hPa)
ob: KANQ 262015Z AUTO 23008KT 10SM CLR M11/M17 A3037 RMK AO2
cycle: 20

Station Type Date Time Source
KANQ TAF UTC NOAA

Error!

Example: see airport list